• Join FlightAware (Why Join?)
  • Login
  • US Flag 
10:04AM EST


 

Airport Tracker/Info


-or-


 

Live Flight TrackerFlight Track Log ✈ N42HN ✈ 24-Oct-2013 ✈ KCHO - KLZU

Flight Track Log - Related Links

Times and Time Zones

All times are in EDT time to prevent confusion due to time zone crossing. See the N42HN flight status page for this flight to view local times or setup timezone preferences in your user account.

Time Position Orientation Groundspeed Altitude Reporting Facility
EDT Latitude Longitude Course Direction KTS MPH feet Rate Location/Type
11:32AM 37.9722 -78.5419 228° Southwest 252 290 9,000  Level Washington Center
11:34AM 37.8833 -78.6806 231° Southwest 249 287 17,600 4,067 Climbing Washington Center
11:35AM 37.8397 -78.7497 231° Southwest 259 298 21,200 3,098 Climbing Washington Center
11:36AM 37.7983 -78.8139 231° Southwest 268 308 23,900 2,678 Climbing Washington Center
11:37AM 37.8134 -78.9194 228° Southwest  Level Estimated
11:37AM 37.7506 -78.8906 232° Southwest 268 308 26,600  Level Washington Center
11:38AM 37.6961 -78.9669 228° Southwest 274 315 28,400 1,966 Climbing Washington Center
11:39AM 37.6458 -79.0486 232° Southwest 290 334 30,500 1,884 Climbing Washington Center
11:40AM 37.5892 -79.1325 230° Southwest 301 346 32,200 1,261 Climbing Washington Center
11:41AM 37.5281 -79.2267 231° Southwest 317 365 33,000 508 Climbing Washington Center
11:42AM 37.4733 -79.3103 231° Southwest 338 389 33,200 885 Climbing Washington Center
11:43AM 37.4056 -79.4064 228° Southwest 343 395 34,800 1,300 Climbing Washington Center
11:44AM 37.3483 -79.4950 231° Southwest 343 395 35,800 864 Climbing Washington Center
11:45AM 37.2933 -79.5811 231° Southwest 338 389 36,500 694 Climbing Washington Center
11:46AM 37.2364 -79.6667 230° Southwest 332 382 37,200 645 Climbing Washington Center
11:47AM 37.1792 -79.7522 230° Southwest 332 382 37,800 397 Climbing Washington Center
11:48AM 37.1239 -79.8378 231° Southwest 327 376 38,000 99 Climbing Washington Center
11:49AM 37.0667 -79.9206 229° Southwest 333 383 38,000  Level Washington Center
11:50AM 37.0072 -80.0108 231° Southwest 338 389 38,000  Level Washington Center
11:52AM 36.8961 -80.1739 230° Southwest 358 412 38,000  Level Atlanta Center
11:53AM 36.8344 -80.2678 231° Southwest 358 412 38,000  Level Atlanta Center
11:54AM 36.7764 -80.3458 227° Southwest 358 412 38,000  Level Atlanta Center
11:55AM 36.7103 -80.4369 228° Southwest 358 412 38,000  Level Atlanta Center
11:56AM 36.6419 -80.5278 227° Southwest 358 412 38,000  Level Atlanta Center
11:57AM 36.5717 -80.6214 227° Southwest 351 404 38,000  Level Atlanta Center
11:58AM 36.5056 -80.7147 229° Southwest 356 410 38,000  Level Atlanta Center
11:59AM 36.4369 -80.8053 227° Southwest 356 410 38,000  Level Atlanta Center
12:00PM 36.3706 -80.8956 228° Southwest 356 410 38,000  Level Atlanta Center
12:01PM 36.3100 -80.9778 228° Southwest 356 410 38,000  Level Atlanta Center
12:02PM 36.2414 -81.0681 227° Southwest 356 410 38,000  Level Atlanta Center
12:03PM 36.1767 -81.1603 229° Southwest 356 410 38,000  Level Atlanta Center
12:04PM 36.1081 -81.2503 227° Southwest 356 410 38,000  Level Atlanta Center
12:05PM 36.0411 -81.3397 227° Southwest 356 410 38,000  Level Atlanta Center
12:06PM 35.9722 -81.4294 227° Southwest 356 410 38,000  Level Atlanta Center
12:07PM 35.9053 -81.5214 228° Southwest 356 410 38,000  Level Atlanta Center
12:08PM 35.8361 -81.6106 226° Southwest 356 410 38,000  Level Atlanta Center
12:09PM 35.7669 -81.6994 226° Southwest 355 409 38,000  Level Atlanta Center
12:10PM 35.6997 -81.7908 224° Southwest 355 409 38,000  Level Atlanta Center
12:11PM 35.6538 -81.8355 224° Southwest  Level FlightAware Approximate
12:11PM 35.6306 -81.8797 226° Southwest 360 414 38,000  Level Atlanta Center
12:12PM 35.5569 -81.9786 228° Southwest 355 409 37,100 -1,200 Descending Atlanta Center
12:13PM 35.4875 -82.0672 226° Southwest 355 409 35,600 -1,550 Descending Atlanta Center
12:14PM 35.4158 -82.1556 225° Southwest 355 409 34,000 -1,650 Descending Atlanta Center
12:15PM 35.3422 -82.2489 226° Southwest 364 419 32,300 -1,600 Descending Atlanta Center
12:16PM 35.2725 -82.3419 227° Southwest 369 425 30,800 -1,600 Descending Atlanta Center
12:17PM 35.1986 -82.4375 227° Southwest 381 438 29,100 -1,600 Descending Atlanta Center
12:18PM 35.1228 -82.5278 224° Southwest 381 438 27,600 -1,550 Descending Atlanta Center
12:19PM 35.0486 -82.6231 226° Southwest 391 450 26,000 -1,500 Descending Atlanta Center
12:20PM 34.9747 -82.7181 227° Southwest 386 444 24,600 -1,450 Descending Atlanta Center
12:21PM 34.9006 -82.8106 226° Southwest 380 437 23,100 -800 Descending Atlanta Center
12:22PM 34.8283 -82.9078 228° Southwest 386 444 23,000 -50 Descending Atlanta Center
12:23PM 34.7331 -82.9847 214° Southwest 397 457 23,000  Level Atlanta Center
12:24PM 34.6397 -83.0642 215° Southwest 409 471 23,000 -400 Level Atlanta Center
12:25PM 34.5569 -83.1283 213° Southwest 415 478 22,200 -2,000 Descending Atlanta Center
12:26PM 34.4950 -83.2222 231° Southwest 383 441 19,000 -3,150 Descending Atlanta Center
12:27PM 34.4369 -83.3083 231° Southwest 351 404 15,900 -2,900 Descending Atlanta Center
12:28PM 34.3831 -83.3869 230° Southwest 326 375 13,200 -2,300 Descending Atlanta Center
12:29PM 34.3375 -83.4550 231° Southwest 285 328 11,300 -1,850 Descending Atlanta Center
12:30PM 34.2878 -83.5233 229° Southwest 270 311 9,500 -1,700 Descending Atlanta Center
12:31PM 34.2400 -83.5992 233° Southwest 265 305 7,900 -1,600 Descending Atlanta Center
12:32PM 34.1903 -83.6622 226° Southwest 265 305 6,300 -1,650 Descending Atlanta Center
12:33PM 34.1425 -83.7275 229° Southwest 265 305 4,600 -1,350 Descending Atlanta Center
12:34PM 34.0883 -83.7781 218° Southwest 260 299 3,600 -800 Descending Atlanta Center
12:35PM 34.0403 -83.8333 224° Southwest 254 292 3,000 -500 Descending Atlanta Center
12:36PM 34.0069 -83.8883 234° Southwest 220 253 2,600 -400 Descending Atlanta Center
12:38PM 33.9667 -83.9500 220° Southwest  Level FlightAware Approximate
12:45PM 33.9781 -83.9624 220° Southwest  Level Estimated
12:46PM 33.9781 -83.9624 220° Southwest  Level Estimated